sensor_id;sensor_type;location;lat;lon;timestamp;P1;durP1;ratioP1;P2;durP2;ratioP2
3036;SDS011;1528;52.550;13.408;2023-02-11T00:00:24;42.97;;;38.83;;
3036;SDS011;1528;52.550;13.408;2023-02-11T00:03:10;41.80;;;37.80;;
3036;SDS011;1528;52.550;13.408;2023-02-11T00:05:56;40.50;;;36.77;;
3036;SDS011;1528;52.550;13.408;2023-02-11T00:08:44;43.43;;;39.17;;
3036;SDS011;1528;52.550;13.408;2023-02-11T00:11:30;43.90;;;39.47;;
3036;SDS011;1528;52.550;13.408;2023-02-11T00:14:15;42.70;;;38.50;;
3036;SDS011;1528;52.550;13.408;2023-02-11T00:17:00;42.93;;;38.93;;
3036;SDS011;1528;52.550;13.408;2023-02-11T00:19:48;42.07;;;38.00;;
3036;SDS011;1528;52.550;13.408;2023-02-11T00:22:34;44.37;;;40.03;;
3036;SDS011;1528;52.550;13.408;2023-02-11T00:25:21;44.13;;;38.63;;
3036;SDS011;1528;52.550;13.408;2023-02-11T00:28:06;43.57;;;39.27;;
3036;SDS011;1528;52.550;13.408;2023-02-11T00:30:55;38.83;;;35.17;;
3036;SDS011;1528;52.550;13.408;2023-02-11T00:33:41;44.67;;;40.27;;
3036;SDS011;1528;52.550;13.408;2023-02-11T00:36:27;44.23;;;39.73;;
3036;SDS011;1528;52.550;13.408;2023-02-11T00:39:13;41.13;;;37.07;;
3036;SDS011;1528;52.550;13.408;2023-02-11T00:42:00;42.77;;;38.57;;
3036;SDS011;1528;52.550;13.408;2023-02-11T00:44:46;48.40;;;43.80;;
3036;SDS011;1528;52.550;13.408;2023-02-11T00:47:31;45.20;;;41.00;;
3036;SDS011;1528;52.550;13.408;2023-02-11T00:50:17;42.97;;;38.60;;
3036;SDS011;1528;52.550;13.408;2023-02-11T00:53:02;43.87;;;39.47;;
3036;SDS011;1528;52.550;13.408;2023-02-11T00:55:48;42.80;;;38.60;;
3036;SDS011;1528;52.550;13.408;2023-02-11T00:58:35;42.03;;;37.73;;
3036;SDS011;1528;52.550;13.408;2023-02-11T01:01:21;43.43;;;39.30;;
3036;SDS011;1528;52.550;13.408;2023-02-11T01:04:07;42.87;;;38.77;;
3036;SDS011;1528;52.550;13.408;2023-02-11T01:06:53;40.77;;;37.07;;
3036;SDS011;1528;52.550;13.408;2023-02-11T01:09:39;44.20;;;40.20;;
3036;SDS011;1528;52.550;13.408;2023-02-11T01:12:24;44.07;;;40.23;;
3036;SDS011;1528;52.550;13.408;2023-02-11T01:15:11;46.63;;;42.23;;
3036;SDS011;1528;52.550;13.408;2023-02-11T01:17:58;38.43;;;34.83;;
3036;SDS011;1528;52.550;13.408;2023-02-11T01:20:44;41.70;;;37.80;;
3036;SDS011;1528;52.550;13.408;2023-02-11T01:23:29;43.90;;;39.70;;
3036;SDS011;1528;52.550;13.408;2023-02-11T01:26:15;44.23;;;40.20;;
3036;SDS011;1528;52.550;13.408;2023-02-11T01:29:01;44.37;;;40.00;;
3036;SDS011;1528;52.550;13.408;2023-02-11T01:31:48;42.30;;;38.57;;
3036;SDS011;1528;52.550;13.408;2023-02-11T01:34:33;39.53;;;36.03;;
3036;SDS011;1528;52.550;13.408;2023-02-11T01:37:19;40.50;;;37.10;;
3036;SDS011;1528;52.550;13.408;2023-02-11T01:40:05;45.00;;;41.17;;
3036;SDS011;1528;52.550;13.408;2023-02-11T01:42:55;41.83;;;37.77;;
3036;SDS011;1528;52.550;13.408;2023-02-11T01:45:45;46.17;;;42.13;;
3036;SDS011;1528;52.550;13.408;2023-02-11T01:48:44;43.50;;;39.60;;
3036;SDS011;1528;52.550;13.408;2023-02-11T01:51:35;42.30;;;38.40;;
3036;SDS011;1528;52.550;13.408;2023-02-11T01:54:25;40.23;;;36.57;;
3036;SDS011;1528;52.550;13.408;2023-02-11T01:57:31;40.63;;;36.73;;
3036;SDS011;1528;52.550;13.408;2023-02-11T02:00:19;43.13;;;38.87;;
3036;SDS011;1528;52.550;13.408;2023-02-11T02:03:10;44.60;;;40.20;;
3036;SDS011;1528;52.550;13.408;2023-02-11T02:06:01;40.90;;;36.87;;
3036;SDS011;1528;52.550;13.408;2023-02-11T02:08:52;43.43;;;39.30;;
3036;SDS011;1528;52.550;13.408;2023-02-11T02:11:41;44.80;;;40.30;;
3036;SDS011;1528;52.550;13.408;2023-02-11T02:14:27;41.40;;;37.63;;
3036;SDS011;1528;52.550;13.408;2023-02-11T02:17:15;41.63;;;37.43;;
3036;SDS011;1528;52.550;13.408;2023-02-11T02:20:14;42.53;;;38.63;;
3036;SDS011;1528;52.550;13.408;2023-02-11T02:23:26;43.17;;;39.20;;
3036;SDS011;1528;52.550;13.408;2023-02-11T02:26:30;42.30;;;38.23;;
3036;SDS011;1528;52.550;13.408;2023-02-11T02:29:42;44.70;;;40.40;;
3036;SDS011;1528;52.550;13.408;2023-02-11T02:32:53;44.00;;;39.80;;
3036;SDS011;1528;52.550;13.408;2023-02-11T02:35:46;42.10;;;38.00;;
3036;SDS011;1528;52.550;13.408;2023-02-11T02:38:37;49.50;;;44.97;;
3036;SDS011;1528;52.550;13.408;2023-02-11T02:41:31;41.90;;;37.80;;
3036;SDS011;1528;52.550;13.408;2023-02-11T02:44:19;47.23;;;42.80;;
3036;SDS011;1528;52.550;13.408;2023-02-11T02:47:05;45.70;;;41.60;;
3036;SDS011;1528;52.550;13.408;2023-02-11T02:49:51;45.10;;;41.00;;
3036;SDS011;1528;52.550;13.408;2023-02-11T02:52:40;46.93;;;42.27;;
3036;SDS011;1528;52.550;13.408;2023-02-11T02:55:36;46.33;;;41.70;;
3036;SDS011;1528;52.550;13.408;2023-02-11T03:01:48;47.30;;;40.20;;
3036;SDS011;1528;52.550;13.408;2023-02-11T03:04:41;49.93;;;44.57;;
3036;SDS011;1528;52.550;13.408;2023-02-11T03:07:36;45.93;;;41.50;;
3036;SDS011;1528;52.550;13.408;2023-02-11T03:10:28;44.00;;;39.70;;
3036;SDS011;1528;52.550;13.408;2023-02-11T03:13:18;45.53;;;40.97;;
3036;SDS011;1528;52.550;13.408;2023-02-11T03:16:11;46.70;;;42.40;;
3036;SDS011;1528;52.550;13.408;2023-02-11T03:19:00;45.37;;;41.17;;
3036;SDS011;1528;52.550;13.408;2023-02-11T03:21:50;44.87;;;40.37;;
3036;SDS011;1528;52.550;13.408;2023-02-11T03:24:38;46.53;;;42.23;;
3036;SDS011;1528;52.550;13.408;2023-02-11T03:27:26;45.20;;;40.80;;
3036;SDS011;1528;52.550;13.408;2023-02-11T03:30:17;45.73;;;41.43;;
3036;SDS011;1528;52.550;13.408;2023-02-11T03:33:06;45.00;;;40.67;;
3036;SDS011;1528;52.550;13.408;2023-02-11T03:35:57;46.10;;;41.63;;
3036;SDS011;1528;52.550;13.408;2023-02-11T03:38:47;48.70;;;44.10;;
3036;SDS011;1528;52.550;13.408;2023-02-11T03:41:39;51.00;;;46.30;;
3036;SDS011;1528;52.550;13.408;2023-02-11T03:44:27;50.47;;;45.03;;
3036;SDS011;1528;52.550;13.408;2023-02-11T03:47:17;47.77;;;43.03;;
3036;SDS011;1528;52.550;13.408;2023-02-11T03:50:07;46.97;;;42.63;;
3036;SDS011;1528;52.550;13.408;2023-02-11T03:52:54;45.83;;;41.70;;
3036;SDS011;1528;52.550;13.408;2023-02-11T03:55:41;49.67;;;44.97;;
3036;SDS011;1528;52.550;13.408;2023-02-11T03:58:30;47.40;;;42.90;;
3036;SDS011;1528;52.550;13.408;2023-02-11T04:01:15;45.63;;;41.30;;
3036;SDS011;1528;52.550;13.408;2023-02-11T04:04:01;46.70;;;42.10;;
3036;SDS011;1528;52.550;13.408;2023-02-11T04:06:47;46.67;;;42.37;;
3036;SDS011;1528;52.550;13.408;2023-02-11T04:09:33;45.70;;;41.30;;
3036;SDS011;1528;52.550;13.408;2023-02-11T04:12:19;47.40;;;42.90;;
3036;SDS011;1528;52.550;13.408;2023-02-11T04:15:07;48.93;;;40.80;;
3036;SDS011;1528;52.550;13.408;2023-02-11T04:17:52;49.33;;;44.10;;
3036;SDS011;1528;52.550;13.408;2023-02-11T04:20:38;50.33;;;45.47;;
3036;SDS011;1528;52.550;13.408;2023-02-11T04:23:24;49.33;;;44.73;;
3036;SDS011;1528;52.550;13.408;2023-02-11T04:26:10;46.73;;;42.00;;
3036;SDS011;1528;52.550;13.408;2023-02-11T04:28:55;48.80;;;44.30;;
3036;SDS011;1528;52.550;13.408;2023-02-11T04:31:42;51.87;;;46.77;;
3036;SDS011;1528;52.550;13.408;2023-02-11T04:34:28;46.67;;;42.00;;
3036;SDS011;1528;52.550;13.408;2023-02-11T04:37:13;48.70;;;44.00;;
3036;SDS011;1528;52.550;13.408;2023-02-11T04:39:59;50.30;;;45.10;;
3036;SDS011;1528;52.550;13.408;2023-02-11T04:42:45;50.67;;;45.50;;
3036;SDS011;1528;52.550;13.408;2023-02-11T04:45:31;52.07;;;47.17;;
3036;SDS011;1528;52.550;13.408;2023-02-11T04:48:18;48.93;;;43.70;;
3036;SDS011;1528;52.550;13.408;2023-02-11T04:51:04;51.67;;;46.67;;
3036;SDS011;1528;52.550;13.408;2023-02-11T04:54:07;54.80;;;49.33;;
3036;SDS011;1528;52.550;13.408;2023-02-11T04:56:53;49.90;;;44.73;;
3036;SDS011;1528;52.550;13.408;2023-02-11T04:59:39;53.67;;;48.63;;
3036;SDS011;1528;52.550;13.408;2023-02-11T05:02:25;49.77;;;44.87;;
3036;SDS011;1528;52.550;13.408;2023-02-11T05:05:10;57.10;;;51.70;;
3036;SDS011;1528;52.550;13.408;2023-02-11T05:07:56;50.40;;;44.93;;
3036;SDS011;1528;52.550;13.408;2023-02-11T05:10:45;51.93;;;47.10;;
3036;SDS011;1528;52.550;13.408;2023-02-11T05:13:31;58.10;;;52.30;;
3036;SDS011;1528;52.550;13.408;2023-02-11T05:16:17;57.43;;;51.67;;
3036;SDS011;1528;52.550;13.408;2023-02-11T05:19:03;56.23;;;50.47;;
3036;SDS011;1528;52.550;13.408;2023-02-11T05:21:48;55.50;;;50.17;;
3036;SDS011;1528;52.550;13.408;2023-02-11T05:24:36;54.63;;;49.17;;
3036;SDS011;1528;52.550;13.408;2023-02-11T05:27:23;54.30;;;49.30;;
3036;SDS011;1528;52.550;13.408;2023-02-11T05:30:09;55.90;;;50.80;;
3036;SDS011;1528;52.550;13.408;2023-02-11T05:32:55;51.93;;;46.77;;
3036;SDS011;1528;52.550;13.408;2023-02-11T05:35:41;53.23;;;48.10;;
3036;SDS011;1528;52.550;13.408;2023-02-11T05:38:27;56.93;;;51.23;;
3036;SDS011;1528;52.550;13.408;2023-02-11T05:41:12;59.27;;;53.07;;
3036;SDS011;1528;52.550;13.408;2023-02-11T05:43:59;58.37;;;52.63;;
3036;SDS011;1528;52.550;13.408;2023-02-11T05:46:45;57.27;;;51.97;;
3036;SDS011;1528;52.550;13.408;2023-02-11T05:49:31;59.73;;;54.30;;
3036;SDS011;1528;52.550;13.408;2023-02-11T05:52:17;61.80;;;56.07;;
3036;SDS011;1528;52.550;13.408;2023-02-11T05:55:03;59.87;;;53.93;;
3036;SDS011;1528;52.550;13.408;2023-02-11T05:57:49;56.80;;;51.40;;
3036;SDS011;1528;52.550;13.408;2023-02-11T06:00:36;58.37;;;52.70;;
3036;SDS011;1528;52.550;13.408;2023-02-11T06:03:22;58.73;;;52.77;;
3036;SDS011;1528;52.550;13.408;2023-02-11T06:06:08;58.43;;;52.20;;
3036;SDS011;1528;52.550;13.408;2023-02-11T06:08:55;59.63;;;53.93;;
3036;SDS011;1528;52.550;13.408;2023-02-11T06:11:41;60.07;;;54.10;;
3036;SDS011;1528;52.550;13.408;2023-02-11T06:14:26;58.93;;;52.63;;
3036;SDS011;1528;52.550;13.408;2023-02-11T06:17:13;59.00;;;51.83;;
3036;SDS011;1528;52.550;13.408;2023-02-11T06:19:59;58.73;;;52.63;;
3036;SDS011;1528;52.550;13.408;2023-02-11T06:22:45;58.37;;;52.03;;
3036;SDS011;1528;52.550;13.408;2023-02-11T06:25:31;58.33;;;52.43;;
3036;SDS011;1528;52.550;13.408;2023-02-11T06:28:17;62.93;;;56.33;;
3036;SDS011;1528;52.550;13.408;2023-02-11T06:31:06;62.20;;;55.90;;
3036;SDS011;1528;52.550;13.408;2023-02-11T06:33:53;60.27;;;54.03;;
3036;SDS011;1528;52.550;13.408;2023-02-11T06:36:39;61.37;;;55.47;;
3036;SDS011;1528;52.550;13.408;2023-02-11T06:39:25;62.37;;;55.60;;
3036;SDS011;1528;52.550;13.408;2023-02-11T06:42:11;61.13;;;54.90;;
3036;SDS011;1528;52.550;13.408;2023-02-11T06:44:56;58.97;;;53.10;;
3036;SDS011;1528;52.550;13.408;2023-02-11T06:47:42;61.03;;;54.47;;
3036;SDS011;1528;52.550;13.408;2023-02-11T06:50:29;65.10;;;58.43;;
3036;SDS011;1528;52.550;13.408;2023-02-11T06:53:14;61.13;;;55.23;;
3036;SDS011;1528;52.550;13.408;2023-02-11T06:56:01;61.73;;;55.63;;
3036;SDS011;1528;52.550;13.408;2023-02-11T06:58:50;66.07;;;59.27;;
3036;SDS011;1528;52.550;13.408;2023-02-11T07:01:38;60.17;;;53.20;;
3036;SDS011;1528;52.550;13.408;2023-02-11T07:04:23;62.00;;;55.40;;
3036;SDS011;1528;52.550;13.408;2023-02-11T07:07:10;63.20;;;56.80;;
3036;SDS011;1528;52.550;13.408;2023-02-11T07:09:56;64.83;;;57.80;;
3036;SDS011;1528;52.550;13.408;2023-02-11T07:12:42;58.17;;;52.20;;
3036;SDS011;1528;52.550;13.408;2023-02-11T07:15:27;62.73;;;56.13;;
3036;SDS011;1528;52.550;13.408;2023-02-11T07:18:13;63.20;;;57.10;;
3036;SDS011;1528;52.550;13.408;2023-02-11T07:20:58;62.10;;;55.70;;
3036;SDS011;1528;52.550;13.408;2023-02-11T07:23:49;58.87;;;52.57;;
3036;SDS011;1528;52.550;13.408;2023-02-11T07:26:35;61.97;;;55.30;;
3036;SDS011;1528;52.550;13.408;2023-02-11T07:29:21;63.33;;;56.87;;
3036;SDS011;1528;52.550;13.408;2023-02-11T07:32:06;64.03;;;57.43;;
3036;SDS011;1528;52.550;13.408;2023-02-11T07:34:52;62.13;;;55.93;;
3036;SDS011;1528;52.550;13.408;2023-02-11T07:37:37;63.07;;;56.63;;
3036;SDS011;1528;52.550;13.408;2023-02-11T07:40:25;61.37;;;54.83;;
3036;SDS011;1528;52.550;13.408;2023-02-11T07:43:11;64.67;;;58.00;;
3036;SDS011;1528;52.550;13.408;2023-02-11T07:45:56;59.50;;;53.50;;
3036;SDS011;1528;52.550;13.408;2023-02-11T07:48:42;64.90;;;58.27;;
3036;SDS011;1528;52.550;13.408;2023-02-11T07:51:28;65.13;;;58.50;;
3036;SDS011;1528;52.550;13.408;2023-02-11T07:54:15;60.97;;;55.17;;
3036;SDS011;1528;52.550;13.408;2023-02-11T07:57:02;61.03;;;54.97;;
3036;SDS011;1528;52.550;13.408;2023-02-11T07:59:47;60.97;;;55.00;;
3036;SDS011;1528;52.550;13.408;2023-02-11T08:02:33;60.40;;;53.90;;
3036;SDS011;1528;52.550;13.408;2023-02-11T08:05:18;60.10;;;53.80;;
3036;SDS011;1528;52.550;13.408;2023-02-11T08:08:04;61.07;;;54.83;;
3036;SDS011;1528;52.550;13.408;2023-02-11T08:10:49;63.60;;;57.00;;
3036;SDS011;1528;52.550;13.408;2023-02-11T08:13:37;63.17;;;56.90;;
3036;SDS011;1528;52.550;13.408;2023-02-11T08:16:23;60.23;;;54.17;;
3036;SDS011;1528;52.550;13.408;2023-02-11T08:19:10;62.07;;;55.70;;
3036;SDS011;1528;52.550;13.408;2023-02-11T08:21:57;58.63;;;52.70;;
3036;SDS011;1528;52.550;13.408;2023-02-11T08:24:44;62.90;;;56.40;;
3036;SDS011;1528;52.550;13.408;2023-02-11T08:27:29;61.67;;;54.97;;
3036;SDS011;1528;52.550;13.408;2023-02-11T08:30:16;60.07;;;53.47;;
3036;SDS011;1528;52.550;13.408;2023-02-11T08:33:02;62.10;;;56.03;;
3036;SDS011;1528;52.550;13.408;2023-02-11T08:35:47;66.67;;;56.13;;
3036;SDS011;1528;52.550;13.408;2023-02-11T08:38:33;60.70;;;54.70;;
3036;SDS011;1528;52.550;13.408;2023-02-11T08:41:18;64.57;;;58.10;;
3036;SDS011;1528;52.550;13.408;2023-02-11T08:44:04;61.50;;;54.90;;
3036;SDS011;1528;52.550;13.408;2023-02-11T08:46:52;58.33;;;52.70;;
3036;SDS011;1528;52.550;13.408;2023-02-11T08:49:37;62.60;;;56.33;;
3036;SDS011;1528;52.550;13.408;2023-02-11T08:52:25;58.93;;;53.23;;
3036;SDS011;1528;52.550;13.408;2023-02-11T08:55:10;58.87;;;52.50;;
3036;SDS011;1528;52.550;13.408;2023-02-11T08:57:56;57.97;;;52.37;;
3036;SDS011;1528;52.550;13.408;2023-02-11T09:00:42;59.50;;;53.30;;
3036;SDS011;1528;52.550;13.408;2023-02-11T09:03:29;62.67;;;56.37;;
3036;SDS011;1528;52.550;13.408;2023-02-11T09:06:15;59.40;;;53.50;;
3036;SDS011;1528;52.550;13.408;2023-02-11T09:09:01;59.07;;;53.27;;
3036;SDS011;1528;52.550;13.408;2023-02-11T09:11:47;59.93;;;53.93;;
3036;SDS011;1528;52.550;13.408;2023-02-11T09:14:32;60.90;;;55.07;;
3036;SDS011;1528;52.550;13.408;2023-02-11T09:17:18;58.70;;;52.63;;
3036;SDS011;1528;52.550;13.408;2023-02-11T09:20:05;60.33;;;54.60;;
3036;SDS011;1528;52.550;13.408;2023-02-11T09:22:52;60.60;;;54.40;;
3036;SDS011;1528;52.550;13.408;2023-02-11T09:25:38;61.50;;;55.50;;
3036;SDS011;1528;52.550;13.408;2023-02-11T09:28:24;61.40;;;55.20;;
3036;SDS011;1528;52.550;13.408;2023-02-11T09:31:10;61.80;;;56.13;;
3036;SDS011;1528;52.550;13.408;2023-02-11T09:33:57;56.53;;;51.17;;
3036;SDS011;1528;52.550;13.408;2023-02-11T09:36:45;56.90;;;51.40;;
3036;SDS011;1528;52.550;13.408;2023-02-11T09:39:31;60.53;;;54.37;;
3036;SDS011;1528;52.550;13.408;2023-02-11T09:42:27;58.03;;;51.80;;
3036;SDS011;1528;52.550;13.408;2023-02-11T09:45:24;57.97;;;52.27;;
3036;SDS011;1528;52.550;13.408;2023-02-11T09:48:12;57.30;;;51.77;;
3036;SDS011;1528;52.550;13.408;2023-02-11T09:51:00;57.00;;;51.37;;
3036;SDS011;1528;52.550;13.408;2023-02-11T09:53:49;57.57;;;51.87;;
3036;SDS011;1528;52.550;13.408;2023-02-11T09:56:40;54.77;;;49.10;;
3036;SDS011;1528;52.550;13.408;2023-02-11T09:59:25;54.53;;;49.50;;
3036;SDS011;1528;52.550;13.408;2023-02-11T10:02:12;56.87;;;51.27;;
3036;SDS011;1528;52.550;13.408;2023-02-11T10:05:26;55.73;;;50.20;;
3036;SDS011;1528;52.550;13.408;2023-02-11T10:08:25;54.20;;;48.90;;
3036;SDS011;1528;52.550;13.408;2023-02-11T10:11:18;55.47;;;49.87;;
3036;SDS011;1528;52.550;13.408;2023-02-11T10:14:11;54.53;;;49.23;;
3036;SDS011;1528;52.550;13.408;2023-02-11T10:17:11;57.70;;;51.83;;
3036;SDS011;1528;52.550;13.408;2023-02-11T10:20:07;55.50;;;49.90;;
3036;SDS011;1528;52.550;13.408;2023-02-11T10:23:07;58.40;;;52.67;;
3036;SDS011;1528;52.550;13.408;2023-02-11T10:25:57;56.37;;;51.40;;
3036;SDS011;1528;52.550;13.408;2023-02-11T10:28:45;55.17;;;49.60;;
3036;SDS011;1528;52.550;13.408;2023-02-11T10:31:33;52.20;;;46.90;;
3036;SDS011;1528;52.550;13.408;2023-02-11T10:34:22;53.40;;;48.00;;
3036;SDS011;1528;52.550;13.408;2023-02-11T10:37:08;57.10;;;50.83;;
3036;SDS011;1528;52.550;13.408;2023-02-11T10:39:56;57.87;;;51.87;;
3036;SDS011;1528;52.550;13.408;2023-02-11T10:42:42;54.20;;;48.90;;
3036;SDS011;1528;52.550;13.408;2023-02-11T10:45:35;57.00;;;51.60;;
3036;SDS011;1528;52.550;13.408;2023-02-11T10:48:39;60.13;;;53.97;;
3036;SDS011;1528;52.550;13.408;2023-02-11T10:51:30;58.87;;;52.97;;
3036;SDS011;1528;52.550;13.408;2023-02-11T10:54:17;56.47;;;50.97;;
3036;SDS011;1528;52.550;13.408;2023-02-11T10:57:03;58.53;;;52.83;;
3036;SDS011;1528;52.550;13.408;2023-02-11T10:59:50;56.87;;;51.13;;
3036;SDS011;1528;52.550;13.408;2023-02-11T11:02:44;57.37;;;51.37;;
3036;SDS011;1528;52.550;13.408;2023-02-11T11:05:36;54.97;;;49.77;;
3036;SDS011;1528;52.550;13.408;2023-02-11T11:08:38;53.23;;;47.50;;
3036;SDS011;1528;52.550;13.408;2023-02-11T11:11:26;54.70;;;49.73;;
3036;SDS011;1528;52.550;13.408;2023-02-11T11:14:17;55.63;;;50.13;;
3036;SDS011;1528;52.550;13.408;2023-02-11T11:17:11;56.00;;;50.27;;
3036;SDS011;1528;52.550;13.408;2023-02-11T11:20:20;54.93;;;49.53;;
3036;SDS011;1528;52.550;13.408;2023-02-11T11:23:14;53.17;;;47.90;;
3036;SDS011;1528;52.550;13.408;2023-02-11T11:26:03;54.43;;;48.60;;
3036;SDS011;1528;52.550;13.408;2023-02-11T11:28:52;54.70;;;48.97;;
3036;SDS011;1528;52.550;13.408;2023-02-11T11:31:46;56.57;;;51.03;;
3036;SDS011;1528;52.550;13.408;2023-02-11T11:34:35;54.53;;;49.10;;
3036;SDS011;1528;52.550;13.408;2023-02-11T11:37:25;50.50;;;45.33;;
3036;SDS011;1528;52.550;13.408;2023-02-11T11:40:20;48.50;;;43.73;;
3036;SDS011;1528;52.550;13.408;2023-02-11T11:43:15;48.90;;;43.97;;
3036;SDS011;1528;52.550;13.408;2023-02-11T11:46:03;49.93;;;45.33;;
3036;SDS011;1528;52.550;13.408;2023-02-11T11:48:49;48.40;;;43.73;;
3036;SDS011;1528;52.550;13.408;2023-02-11T11:51:38;49.47;;;45.03;;
3036;SDS011;1528;52.550;13.408;2023-02-11T11:54:28;49.80;;;44.83;;
3036;SDS011;1528;52.550;13.408;2023-02-11T11:57:18;45.20;;;40.30;;
3036;SDS011;1528;52.550;13.408;2023-02-11T12:00:13;43.13;;;38.90;;
3036;SDS011;1528;52.550;13.408;2023-02-11T12:03:15;47.20;;;42.77;;
3036;SDS011;1528;52.550;13.408;2023-02-11T12:06:21;44.97;;;41.30;;
3036;SDS011;1528;52.550;13.408;2023-02-11T12:09:19;47.40;;;42.70;;
3036;SDS011;1528;52.550;13.408;2023-02-11T12:12:25;41.93;;;38.20;;
3036;SDS011;1528;52.550;13.408;2023-02-11T12:15:28;41.23;;;37.33;;
3036;SDS011;1528;52.550;13.408;2023-02-11T12:18:29;41.33;;;37.67;;
3036;SDS011;1528;52.550;13.408;2023-02-11T12:21:41;41.83;;;37.70;;
3036;SDS011;1528;52.550;13.408;2023-02-11T12:24:47;42.33;;;38.77;;
3036;SDS011;1528;52.550;13.408;2023-02-11T12:27:49;40.47;;;36.90;;
3036;SDS011;1528;52.550;13.408;2023-02-11T12:30:58;43.20;;;39.50;;
3036;SDS011;1528;52.550;13.408;2023-02-11T12:33:59;41.87;;;37.87;;
3036;SDS011;1528;52.550;13.408;2023-02-11T12:37:03;39.70;;;36.60;;
3036;SDS011;1528;52.550;13.408;2023-02-11T12:39:55;40.90;;;36.67;;
3036;SDS011;1528;52.550;13.408;2023-02-11T12:42:58;40.83;;;37.07;;
3036;SDS011;1528;52.550;13.408;2023-02-11T12:46:12;38.90;;;35.77;;
3036;SDS011;1528;52.550;13.408;2023-02-11T12:49:14;38.87;;;35.40;;
3036;SDS011;1528;52.550;13.408;2023-02-11T12:52:22;43.10;;;39.30;;
3036;SDS011;1528;52.550;13.408;2023-02-11T12:58:59;42.33;;;39.00;;
3036;SDS011;1528;52.550;13.408;2023-02-11T13:01:48;38.60;;;35.40;;
3036;SDS011;1528;52.550;13.408;2023-02-11T13:04:36;40.40;;;37.20;;
3036;SDS011;1528;52.550;13.408;2023-02-11T13:07:26;37.57;;;34.50;;
3036;SDS011;1528;52.550;13.408;2023-02-11T13:10:21;42.63;;;39.20;;
3036;SDS011;1528;52.550;13.408;2023-02-11T13:13:12;37.70;;;34.43;;
3036;SDS011;1528;52.550;13.408;2023-02-11T13:16:04;40.20;;;37.30;;
3036;SDS011;1528;52.550;13.408;2023-02-11T13:18:53;37.80;;;34.90;;
3036;SDS011;1528;52.550;13.408;2023-02-11T13:21:52;38.63;;;35.10;;
3036;SDS011;1528;52.550;13.408;2023-02-11T13:24:52;38.93;;;35.83;;
3036;SDS011;1528;52.550;13.408;2023-02-11T13:27:42;39.50;;;36.50;;
3036;SDS011;1528;52.550;13.408;2023-02-11T13:30:41;36.50;;;33.57;;
3036;SDS011;1528;52.550;13.408;2023-02-11T13:33:32;40.63;;;37.60;;
3036;SDS011;1528;52.550;13.408;2023-02-11T13:36:19;44.67;;;41.28;;
3036;SDS011;1528;52.550;13.408;2023-02-11T13:39:18;40.67;;;37.50;;
3036;SDS011;1528;52.550;13.408;2023-02-11T13:42:05;39.43;;;35.60;;
3036;SDS011;1528;52.550;13.408;2023-02-11T13:44:59;37.47;;;34.67;;
3036;SDS011;1528;52.550;13.408;2023-02-11T13:47:45;34.60;;;31.00;;
3036;SDS011;1528;52.550;13.408;2023-02-11T13:50:36;33.27;;;30.73;;
3036;SDS011;1528;52.550;13.408;2023-02-11T13:53:23;32.93;;;30.10;;
3036;SDS011;1528;52.550;13.408;2023-02-11T13:56:11;34.50;;;31.57;;
3036;SDS011;1528;52.550;13.408;2023-02-11T14:02:36;34.23;;;31.73;;
3036;SDS011;1528;52.550;13.408;2023-02-11T14:12:23;33.03;;;30.30;;
3036;SDS011;1528;52.550;13.408;2023-02-11T14:15:21;30.30;;;27.73;;
3036;SDS011;1528;52.550;13.408;2023-02-11T14:21:22;32.30;;;29.80;;
3036;SDS011;1528;52.550;13.408;2023-02-11T14:27:33;31.40;;;28.90;;
3036;SDS011;1528;52.550;13.408;2023-02-11T14:30:35;30.27;;;28.17;;
3036;SDS011;1528;52.550;13.408;2023-02-11T14:33:37;30.40;;;28.20;;
3036;SDS011;1528;52.550;13.408;2023-02-11T14:36:45;29.10;;;26.83;;
3036;SDS011;1528;52.550;13.408;2023-02-11T14:39:53;29.50;;;27.27;;
3036;SDS011;1528;52.550;13.408;2023-02-11T14:42:44;30.43;;;28.23;;
3036;SDS011;1528;52.550;13.408;2023-02-11T14:45:29;30.17;;;27.90;;
3036;SDS011;1528;52.550;13.408;2023-02-11T14:48:15;34.23;;;31.43;;
3036;SDS011;1528;52.550;13.408;2023-02-11T14:51:03;30.27;;;28.10;;
3036;SDS011;1528;52.550;13.408;2023-02-11T14:53:54;31.10;;;28.80;;
3036;SDS011;1528;52.550;13.408;2023-02-11T14:56:43;29.03;;;27.07;;
3036;SDS011;1528;52.550;13.408;2023-02-11T14:59:30;29.73;;;27.57;;
3036;SDS011;1528;52.550;13.408;2023-02-11T15:02:20;31.17;;;28.97;;
3036;SDS011;1528;52.550;13.408;2023-02-11T15:05:13;28.60;;;26.50;;
3036;SDS011;1528;52.550;13.408;2023-02-11T15:08:02;29.53;;;27.43;;
3036;SDS011;1528;52.550;13.408;2023-02-11T15:10:50;27.23;;;25.27;;
3036;SDS011;1528;52.550;13.408;2023-02-11T15:13:37;31.93;;;29.57;;
3036;SDS011;1528;52.550;13.408;2023-02-11T15:16:27;29.30;;;27.40;;
3036;SDS011;1528;52.550;13.408;2023-02-11T15:19:17;29.57;;;27.33;;
3036;SDS011;1528;52.550;13.408;2023-02-11T15:22:06;29.27;;;27.10;;
3036;SDS011;1528;52.550;13.408;2023-02-11T15:25:01;28.10;;;25.90;;
3036;SDS011;1528;52.550;13.408;2023-02-11T15:27:55;32.40;;;30.00;;
3036;SDS011;1528;52.550;13.408;2023-02-11T15:30:41;29.20;;;27.10;;
3036;SDS011;1528;52.550;13.408;2023-02-11T15:33:27;29.20;;;27.30;;
3036;SDS011;1528;52.550;13.408;2023-02-11T15:36:15;27.77;;;25.77;;
3036;SDS011;1528;52.550;13.408;2023-02-11T15:39:15;29.23;;;27.00;;
3036;SDS011;1528;52.550;13.408;2023-02-11T15:42:19;27.37;;;25.40;;
3036;SDS011;1528;52.550;13.408;2023-02-11T15:45:09;27.63;;;25.83;;
3036;SDS011;1528;52.550;13.408;2023-02-11T15:48:08;26.17;;;24.17;;
3036;SDS011;1528;52.550;13.408;2023-02-11T15:50:57;27.03;;;25.23;;
3036;SDS011;1528;52.550;13.408;2023-02-11T15:53:48;26.50;;;24.70;;
3036;SDS011;1528;52.550;13.408;2023-02-11T15:56:39;27.10;;;25.30;;
3036;SDS011;1528;52.550;13.408;2023-02-11T15:59:28;30.13;;;27.77;;
3036;SDS011;1528;52.550;13.408;2023-02-11T16:02:19;31.00;;;29.10;;
3036;SDS011;1528;52.550;13.408;2023-02-11T16:05:23;32.53;;;30.43;;
3036;SDS011;1528;52.550;13.408;2023-02-11T16:08:19;30.47;;;28.47;;
3036;SDS011;1528;52.550;13.408;2023-02-11T16:11:17;27.50;;;25.50;;
3036;SDS011;1528;52.550;13.408;2023-02-11T16:14:18;30.67;;;28.50;;
3036;SDS011;1528;52.550;13.408;2023-02-11T16:17:07;28.33;;;26.50;;
3036;SDS011;1528;52.550;13.408;2023-02-11T16:19:56;27.90;;;26.13;;
3036;SDS011;1528;52.550;13.408;2023-02-11T16:22:44;26.80;;;24.80;;
3036;SDS011;1528;52.550;13.408;2023-02-11T16:25:31;27.27;;;25.57;;
3036;SDS011;1528;52.550;13.408;2023-02-11T16:28:19;26.47;;;24.67;;
3036;SDS011;1528;52.550;13.408;2023-02-11T16:31:04;27.13;;;25.33;;
3036;SDS011;1528;52.550;13.408;2023-02-11T16:33:52;27.30;;;25.63;;
3036;SDS011;1528;52.550;13.408;2023-02-11T16:36:39;29.03;;;27.33;;
3036;SDS011;1528;52.550;13.408;2023-02-11T16:39:24;25.07;;;23.37;;
3036;SDS011;1528;52.550;13.408;2023-02-11T16:42:10;24.60;;;23.13;;
3036;SDS011;1528;52.550;13.408;2023-02-11T16:44:56;25.17;;;23.67;;
3036;SDS011;1528;52.550;13.408;2023-02-11T16:47:43;22.43;;;20.87;;
3036;SDS011;1528;52.550;13.408;2023-02-11T16:50:29;23.13;;;21.37;;
3036;SDS011;1528;52.550;13.408;2023-02-11T16:53:17;20.57;;;19.27;;
3036;SDS011;1528;52.550;13.408;2023-02-11T16:56:05;23.40;;;22.10;;
3036;SDS011;1528;52.550;13.408;2023-02-11T16:58:54;24.33;;;22.93;;
3036;SDS011;1528;52.550;13.408;2023-02-11T17:01:40;20.97;;;19.47;;
3036;SDS011;1528;52.550;13.408;2023-02-11T17:04:28;21.90;;;20.43;;
3036;SDS011;1528;52.550;13.408;2023-02-11T17:07:16;25.57;;;23.83;;
3036;SDS011;1528;52.550;13.408;2023-02-11T17:10:04;22.40;;;21.00;;